TimeCDT,TemperatureF,Dew PointF,Humidity,Sea Level PressureIn,VisibilityMPH,Wind Direction,Wind SpeedMPH,Gust SpeedMPH,PrecipitationIn,Events,Conditions,WindDirDegrees,DateUTC
12:53 AM,44.1,42.1,93,30.20,10.0,Calm,Calm,-,N/A,,Clear,0,2012-10-08 05:53:00
1:53 AM,43.0,41.0,93,30.22,10.0,Calm,Calm,-,N/A,,Clear,0,2012-10-08 06:53:00
2:53 AM,44.1,42.1,93,30.22,10.0,Calm,Calm,-,N/A,,Clear,0,2012-10-08 07:53:00
3:53 AM,44.1,42.1,93,30.21,9.0,Calm,Calm,-,N/A,,Clear,0,2012-10-08 08:53:00
4:53 AM,44.1,42.1,93,30.22,10.0,Calm,Calm,-,N/A,,Partly Cloudy,0,2012-10-08 09:53:00
5:53 AM,44.1,42.1,93,30.22,9.0,Calm,Calm,-,N/A,,Clear,0,2012-10-08 10:53:00
6:53 AM,39.9,39.0,97,30.24,10.0,Calm,Calm,-,N/A,,Clear,0,2012-10-08 11:53:00
7:09 AM,39.2,37.4,93,30.24,1.8,WSW,3.5,-,N/A,,Clear,240,2012-10-08 12:09:00
7:16 AM,39.2,37.4,93,30.24,0.2,WSW,4.6,-,N/A,Fog,Fog,240,2012-10-08 12:16:00
7:27 AM,39.2,37.4,93,30.25,1.0,Calm,Calm,-,N/A,,Clear,0,2012-10-08 12:27:00
7:30 AM,39.2,39.2,100,30.24,3.0,Calm,Calm,-,N/A,,Clear,0,2012-10-08 12:30:00
7:53 AM,42.1,39.9,92,30.25,8.0,Calm,Calm,-,N/A,,Clear,0,2012-10-08 12:53:00
8:53 AM,48.0,42.1,80,30.26,10.0,Calm,Calm,-,N/A,,Clear,0,2012-10-08 13:53:00
9:53 AM,51.1,41.0,68,30.27,10.0,West,8.1,-,N/A,,Clear,270,2012-10-08 14:53:00
10:53 AM,54.0,37.9,55,30.26,10.0,West,5.8,-,N/A,,Clear,270,2012-10-08 15:53:00
11:53 AM,55.9,37.0,49,30.24,10.0,Variable,5.8,-,N/A,,Partly Cloudy,0,2012-10-08 16:53:00
12:53 PM,57.9,36.0,44,30.21,10.0,West,5.8,-,N/A,,Clear,280,2012-10-08 17:53:00
1:53 PM,59.0,36.0,42,30.17,10.0,Calm,Calm,-,N/A,,Clear,0,2012-10-08 18:53:00
2:53 PM,60.1,37.0,42,30.16,10.0,South,4.6,-,N/A,,Clear,170,2012-10-08 19:53:00
3:53 PM,60.1,36.0,41,30.14,10.0,Variable,4.6,-,N/A,,Clear,0,2012-10-08 20:53:00
4:53 PM,60.1,36.0,41,30.13,10.0,SSW,5.8,-,N/A,,Clear,210,2012-10-08 21:53:00
5:53 PM,57.0,37.0,47,30.12,10.0,South,6.9,-,N/A,,Clear,190,2012-10-08 22:53:00
6:53 PM,48.0,39.9,74,30.12,10.0,South,3.5,-,N/A,,Clear,170,2012-10-08 23:53:00
7:53 PM,45.0,39.0,80,30.12,10.0,South,4.6,-,N/A,,Clear,170,2012-10-09 00:53:00
8:53 PM,43.0,39.0,86,30.13,10.0,SSE,4.6,-,N/A,,Clear,160,2012-10-09 01:53:00
9:53 PM,43.0,39.0,86,30.13,10.0,South,5.8,-,N/A,,Clear,170,2012-10-09 02:53:00
10:53 PM,39.9,37.9,93,30.14,10.0,Calm,Calm,-,N/A,,Clear,0,2012-10-09 03:53:00
11:53 PM,39.2,37.4,93,30.13,10.0,Calm,Calm,-,N/A,,Clear,0,2012-10-09 04:53:00